Time;durP1;ratioP1;P1;durP2;ratioP2;P2;SDS_P1;SDS_P2;PMS_P1;PMS_P2;Temp;Humidity;BMP_temperature;BMP_pressure;BME280_temperature;BME280_humidity;BME280_pressure;Samples;Min_cycle;Max_cycle;Signal;HPM_P1;HPM_P2
2021/10/17 00:02:00;;;;;;;55.17;40.73;;;;;;;8.33;76.42;101015.38;1758074;81;20921;-75
2021/10/17 00:04:26;;;;;;;58.45;38.10;;;;;;;8.30;76.37;101015.52;1757754;80;20869;-74
2021/10/17 00:06:53;;;;;;;56.65;40.03;;;;;;;8.25;76.46;101009.66;1758073;81;22010;-76
2021/10/17 00:09:20;;;;;;;57.33;39.63;;;;;;;8.22;76.50;101011.92;1757800;81;21001;-74
2021/10/17 00:11:48;;;;;;;52.33;37.35;;;;;;;8.19;76.53;101006.84;1757856;81;21007;-75
2021/10/17 00:14:15;;;;;;;57.17;39.40;;;;;;;8.18;76.63;101005.16;1757903;80;20886;-74
2021/10/17 00:16:42;;;;;;;59.10;37.33;;;;;;;8.19;76.57;101008.61;1758205;81;20959;-75
2021/10/17 00:19:09;;;;;;;57.85;39.45;;;;;;;8.19;76.64;101003.39;1758010;81;21193;-75
2021/10/17 00:21:36;;;;;;;58.42;40.43;;;;;;;8.18;76.51;100999.06;1758063;80;20888;-75
2021/10/17 00:24:03;;;;;;;66.47;41.73;;;;;;;8.19;76.65;101009.92;1757972;81;20896;-76
2021/10/17 00:26:29;;;;;;;66.17;42.83;;;;;;;8.17;76.58;101000.83;1758331;81;20865;-76
2021/10/17 00:28:58;;;;;;;64.95;41.37;;;;;;;8.14;76.63;100998.37;1758030;81;21461;-75
2021/10/17 00:31:25;;;;;;;71.62;42.48;;;;;;;8.13;76.90;100995.34;1758259;81;21103;-75
2021/10/17 00:33:51;;;;;;;57.70;36.50;;;;;;;8.16;76.99;101000.45;1758090;81;20976;-76
2021/10/17 00:36:18;;;;;;;54.58;36.58;;;;;;;8.19;77.05;101002.08;1757984;81;20932;-75
2021/10/17 00:38:45;;;;;;;55.17;29.92;;;;;;;8.20;77.18;101001.99;1758049;81;20869;-74
2021/10/17 00:41:12;;;;;;;47.23;30.05;;;;;;;8.25;77.21;100996.59;1758173;81;20952;-75
2021/10/17 00:43:39;;;;;;;46.53;26.20;;;;;;;8.28;77.19;101000.36;1757946;81;21441;-75
2021/10/17 00:46:18;;;;;;;41.77;29.00;;;;;;;8.28;76.97;100996.45;1758086;81;21030;-75
2021/10/17 00:48:45;;;;;;;42.38;27.70;;;;;;;8.28;76.74;100993.37;1757797;80;21468;-75
2021/10/17 00:51:12;;;;;;;44.33;29.20;;;;;;;8.27;76.63;100999.53;1748356;81;20945;-75
2021/10/17 00:53:39;;;;;;;38.35;27.87;;;;;;;8.26;76.51;100997.81;1744678;81;21474;-74
2021/10/17 00:56:06;;;;;;;40.75;28.07;;;;;;;8.21;76.45;100997.17;1744897;81;21099;-76
2021/10/17 00:58:34;;;;;;;42.75;25.32;;;;;;;8.18;76.79;100994.71;1736133;82;21102;-75
2021/10/17 01:01:01;;;;;;;44.45;27.30;;;;;;;8.16;76.91;100993.92;1736572;81;20984;-75
2021/10/17 01:03:28;;;;;;;42.30;28.17;;;;;;;8.16;77.02;100994.36;1736246;82;20944;-74
2021/10/17 01:05:56;;;;;;;40.92;25.88;;;;;;;8.14;77.05;100996.19;1736433;82;21489;-74
2021/10/17 01:08:23;;;;;;;33.85;25.75;;;;;;;8.12;77.18;100988.44;1736047;82;21145;-75
2021/10/17 01:10:56;;;;;;;35.85;24.10;;;;;;;8.12;77.36;100991.05;1736125;81;20925;-74
2021/10/17 01:13:23;;;;;;;37.40;26.02;;;;;;;8.14;77.76;100984.00;1736077;82;21319;-74
2021/10/17 01:15:52;;;;;;;33.58;24.87;;;;;;;8.23;77.78;100991.89;1736111;82;20921;-75
2021/10/17 01:18:20;;;;;;;38.48;26.80;;;;;;;8.28;77.60;100991.22;1736150;81;20929;-76
2021/10/17 01:20:47;;;;;;;35.73;26.40;;;;;;;8.34;77.57;100990.95;1736230;82;21095;-75
2021/10/17 01:23:14;;;;;;;44.53;29.37;;;;;;;8.38;77.41;100996.44;1736234;82;21384;-75
2021/10/17 01:25:41;;;;;;;45.05;29.12;;;;;;;8.40;77.24;100993.73;1736142;82;20995;-76
2021/10/17 01:28:08;;;;;;;42.53;28.98;;;;;;;8.40;77.09;100997.66;1736049;82;20897;-75
2021/10/17 01:30:35;;;;;;;38.25;29.30;;;;;;;8.39;77.02;100999.42;1736113;81;21371;-75
2021/10/17 01:33:03;;;;;;;42.95;29.65;;;;;;;8.39;76.91;100995.97;1736363;82;21568;-75
2021/10/17 01:35:30;;;;;;;41.20;29.27;;;;;;;8.36;76.84;100995.66;1736038;81;20936;-75
2021/10/17 01:37:57;;;;;;;42.15;28.85;;;;;;;8.35;76.79;101004.86;1736312;81;20968;-75
2021/10/17 01:40:24;;;;;;;41.63;27.13;;;;;;;8.33;76.87;101004.92;1735766;82;21497;-75
2021/10/17 01:42:51;;;;;;;38.10;27.13;;;;;;;8.34;76.94;101007.94;1736361;81;21518;-76
2021/10/17 01:45:19;;;;;;;33.70;26.65;;;;;;;8.36;76.89;101006.11;1736203;81;21129;-75
2021/10/17 01:47:48;;;;;;;37.78;24.77;;;;;;;8.38;76.82;101007.33;1736119;81;20901;-75
2021/10/17 01:50:16;;;;;;;36.13;25.90;;;;;;;8.40;76.70;101010.72;1735897;81;20980;-75
2021/10/17 01:52:43;;;;;;;33.20;25.30;;;;;;;8.40;76.50;101010.28;1736193;82;20949;-74
2021/10/17 01:55:10;;;;;;;36.48;24.52;;;;;;;8.42;76.35;101007.15;1736066;82;21445;-74
2021/10/17 01:57:38;;;;;;;44.10;25.17;;;;;;;8.43;76.12;101006.72;1736400;81;21107;-73
2021/10/17 02:00:06;;;;;;;33.95;24.25;;;;;;;8.39;76.03;101012.96;1715298;82;21408;-74
2021/10/17 02:02:44;;;;;;;32.45;23.00;;;;;;;8.37;75.99;101010.88;1736017;82;20929;-75
2021/10/17 02:05:13;;;;;;;32.03;22.13;;;;;;;8.34;75.93;101007.94;1735280;82;20948;-74
2021/10/17 02:07:41;;;;;;;36.20;22.10;;;;;;;8.30;75.89;101008.98;1736112;82;20928;-75
2021/10/17 02:10:10;;;;;;;29.77;21.17;;;;;;;8.27;76.04;101007.80;1736229;82;21864;-74
2021/10/17 02:12:37;;;;;;;32.38;22.77;;;;;;;8.22;75.96;101008.00;1736041;82;20885;-74
2021/10/17 02:15:06;;;;;;;33.02;21.97;;;;;;;8.18;76.13;101013.00;1736140;82;20885;-76
2021/10/17 02:17:35;;;;;;;30.08;21.25;;;;;;;8.17;76.46;101008.67;1715397;82;21351;-74
2021/10/17 02:20:04;;;;;;;30.12;19.98;;;;;;;8.21;76.70;101014.16;1736045;82;21371;-75
2021/10/17 02:22:31;;;;;;;30.70;20.55;;;;;;;8.23;76.48;101013.64;1736123;81;21562;-75
2021/10/17 02:24:57;;;;;;;29.27;21.07;;;;;;;8.22;76.42;101005.86;1736037;82;20921;-75
2021/10/17 02:27:24;;;;;;;33.85;23.38;;;;;;;8.21;76.57;101007.63;1736271;82;21366;-74
2021/10/17 02:29:54;;;;;;;30.75;21.00;;;;;;;8.25;76.64;101009.66;1736045;81;21394;-74
2021/10/17 02:32:24;;;;;;;32.03;21.68;;;;;;;8.27;76.63;101008.67;1735643;82;20869;-74
2021/10/17 02:34:52;;;;;;;30.27;20.45;;;;;;;8.26;76.39;101012.64;1735516;82;21128;-75
2021/10/17 02:37:20;;;;;;;27.85;20.85;;;;;;;8.22;76.24;101006.70;1735986;81;20894;-74
2021/10/17 02:39:47;;;;;;;28.47;19.65;;;;;;;8.18;76.18;101009.08;1736245;81;20888;-75
2021/10/17 02:42:13;;;;;;;33.42;19.87;;;;;;;8.14;76.22;101010.55;1736035;82;20933;-75
2021/10/17 02:44:42;;;;;;;32.63;20.52;;;;;;;8.09;76.33;101008.14;1736439;82;20956;-75
2021/10/17 02:47:08;;;;;;;27.37;19.60;;;;;;;8.07;76.68;101008.66;1736121;82;21802;-75
2021/10/17 02:49:36;;;;;;;31.00;20.12;;;;;;;8.08;76.90;101012.53;1736211;82;21347;-75
2021/10/17 02:52:03;;;;;;;25.27;19.90;;;;;;;8.10;76.81;101010.70;1726991;81;20927;-74
2021/10/17 02:54:30;;;;;;;29.60;20.32;;;;;;;8.15;76.88;101010.97;1758116;81;20987;-75
2021/10/17 02:56:59;;;;;;;29.27;19.87;;;;;;;8.14;76.81;101012.73;1757847;80;20974;-75
2021/10/17 02:59:26;;;;;;;27.60;20.65;;;;;;;8.16;76.96;101009.60;1758169;81;21517;-76
2021/10/17 03:01:53;;;;;;;34.27;21.50;;;;;;;8.20;76.91;101014.21;1757781;81;20923;-75
2021/10/17 03:04:20;;;;;;;31.35;22.65;;;;;;;8.22;76.85;101008.00;1730059;81;20955;-75
2021/10/17 03:06:48;;;;;;;30.23;20.95;;;;;;;8.24;76.55;101009.25;1757136;81;20994;-75
2021/10/17 03:09:15;;;;;;;28.87;22.05;;;;;;;8.22;76.31;101009.30;1758144;80;20937;-75
2021/10/17 03:11:42;;;;;;;31.97;22.98;;;;;;;8.21;76.21;101009.40;1757755;81;21602;-76
2021/10/17 03:14:09;;;;;;;33.02;23.27;;;;;;;8.17;76.28;101003.45;1758056;81;20944;-75
2021/10/17 03:16:36;;;;;;;30.52;22.07;;;;;;;8.17;76.32;101006.06;1757693;80;20924;-77
2021/10/17 03:19:05;;;;;;;30.62;21.68;;;;;;;8.18;76.41;101005.59;1757815;81;21457;-79
2021/10/17 03:21:32;;;;;;;31.70;20.57;;;;;;;8.18;76.34;101014.73;1757940;81;20979;-77
2021/10/17 03:23:59;;;;;;;34.78;21.75;;;;;;;8.18;76.54;101000.37;1758081;81;21823;-77
2021/10/17 03:26:25;;;;;;;26.85;19.77;;;;;;;8.20;76.54;101008.98;1729872;81;20845;-78
2021/10/17 03:28:52;;;;;;;28.50;20.32;;;;;;;8.23;76.50;101004.95;1758219;81;20904;-76
2021/10/17 03:31:19;;;;;;;30.00;21.33;;;;;;;8.25;76.50;101003.13;1757826;80;20912;-77
2021/10/17 03:33:46;;;;;;;31.10;22.10;;;;;;;8.27;76.42;101005.19;1758045;80;20924;-76
2021/10/17 03:36:14;;;;;;;33.42;22.07;;;;;;;8.27;76.46;101005.19;1757826;80;21378;-77
2021/10/17 03:38:41;;;;;;;39.23;22.17;;;;;;;8.26;76.44;101010.88;1757664;81;20979;-77
2021/10/17 03:41:12;;;;;;;30.85;20.80;;;;;;;8.27;76.43;101006.06;1757925;81;20892;-77
2021/10/17 03:43:40;;;;;;;26.23;20.17;;;;;;;8.26;76.46;101006.11;1757460;80;21526;-76
2021/10/17 03:46:07;;;;;;;36.83;21.85;;;;;;;8.23;76.48;101003.65;1758079;81;20892;-77
2021/10/17 03:48:34;;;;;;;26.17;20.75;;;;;;;8.19;76.56;101002.92;1757725;80;21136;-77
2021/10/17 03:51:08;;;;;;;30.50;19.25;;;;;;;8.18;76.72;101005.59;1755725;80;20888;-76
2021/10/17 03:53:33;;;;;;;23.87;17.60;;;;;;;8.18;77.06;101003.85;1722979;82;20900;-75
2021/10/17 03:56:00;;;;;;;30.82;18.82;;;;;;;8.24;76.94;101014.02;1750067;82;20917;-76
2021/10/17 03:58:27;;;;;;;28.55;19.12;;;;;;;8.30;76.68;101010.30;1750085;81;21022;-76
2021/10/17 04:00:54;;;;;;;26.07;20.15;;;;;;;8.35;76.53;101014.84;1749939;80;21823;-76
2021/10/17 04:05:39;;;;;;;47.53;31.27;;;;;;;8.47;76.18;101013.04;1798537;79;22580;-76
2021/10/17 04:08:08;;;;;;;44.93;28.55;;;;;;;8.46;75.95;101018.33;1758359;81;20872;-77
2021/10/17 04:10:36;;;;;;;41.58;25.65;;;;;;;8.44;75.62;101010.55;1758296;81;21170;-78
2021/10/17 04:13:03;;;;;;;36.25;23.05;;;;;;;8.42;75.54;101025.91;1758183;81;20908;-77
2021/10/17 04:15:35;;;;;;;32.80;22.35;;;;;;;8.39;75.52;101024.25;1758207;81;20924;-77
2021/10/17 04:18:00;;;;;;;35.23;22.15;;;;;;;8.38;75.73;101023.00;1758117;81;20877;-74
2021/10/17 04:20:27;;;;;;;32.25;21.87;;;;;;;8.38;75.74;101026.92;1758150;80;20912;-75
2021/10/17 04:22:54;;;;;;;32.88;23.85;;;;;;;8.38;75.74;101026.92;1758318;80;21501;-74
2021/10/17 04:25:21;;;;;;;38.48;24.40;;;;;;;8.40;75.85;101025.97;1758138;81;20908;-75
2021/10/17 04:27:48;;;;;;;30.82;22.75;;;;;;;8.42;75.76;101029.36;1758246;81;20948;-74
2021/10/17 04:30:15;;;;;;;33.05;22.55;;;;;;;8.43;75.83;101026.31;1758207;81;20960;-74
2021/10/17 04:32:43;;;;;;;35.33;22.42;;;;;;;8.46;75.67;101035.31;1758325;81;20983;-74
2021/10/17 04:35:10;;;;;;;28.77;20.92;;;;;;;8.47;75.55;101032.64;1758240;81;21096;-74
2021/10/17 04:37:38;;;;;;;28.77;23.20;;;;;;;8.50;75.28;101031.66;1758251;81;21373;-74
2021/10/17 04:40:07;;;;;;;35.73;21.65;;;;;;;8.50;75.15;101030.34;1758167;80;20972;-75
2021/10/17 04:42:35;;;;;;;144.30;79.95;;;;;;;8.50;75.05;101033.80;1758346;80;20931;-74
2021/10/17 04:45:05;;;;;;;50.03;30.85;;;;;;;8.50;74.84;101042.11;1758135;81;20984;-75
2021/10/17 04:47:34;;;;;;;38.73;24.65;;;;;;;8.49;74.73;101045.62;1758305;81;21138;-75
2021/10/17 04:50:01;;;;;;;33.18;23.30;;;;;;;8.48;74.67;101050.47;1758153;81;20919;-75
2021/10/17 04:52:30;;;;;;;37.48;25.80;;;;;;;8.48;74.59;101045.25;1758136;80;21405;-75
2021/10/17 04:54:57;;;;;;;43.05;25.32;;;;;;;8.50;74.53;101048.64;1758510;81;21370;-75
2021/10/17 04:57:25;;;;;;;43.63;25.57;;;;;;;8.54;74.55;101046.72;1758527;80;21461;-75
2021/10/17 04:59:53;;;;;;;35.75;22.62;;;;;;;8.58;74.49;101050.90;1758449;81;21142;-75
2021/10/17 05:02:20;;;;;;;40.45;26.45;;;;;;;8.62;74.36;101048.08;1758170;81;21426;-75
2021/10/17 05:04:47;;;;;;;41.65;24.55;;;;;;;8.64;74.22;101045.41;1750960;80;21454;-75
2021/10/17 05:07:17;;;;;;;38.40;24.63;;;;;;;8.66;74.05;101056.17;1744983;80;20956;-75
2021/10/17 05:09:44;;;;;;;40.40;25.05;;;;;;;8.69;74.00;101051.27;1745118;80;21425;-74
2021/10/17 05:12:12;;;;;;;45.25;29.57;;;;;;;8.69;74.10;101056.06;1745100;80;21204;-74
2021/10/17 05:14:40;;;;;;;45.45;29.77;;;;;;;8.72;74.19;101055.06;1745127;80;20917;-74
2021/10/17 05:17:07;;;;;;;35.73;24.10;;;;;;;8.74;74.27;101055.85;1734246;82;20901;-74
2021/10/17 05:19:34;;;;;;;35.23;22.45;;;;;;;8.79;74.05;101060.41;1744447;81;20897;-75
2021/10/17 05:22:01;;;;;;;32.30;20.40;;;;;;;8.80;74.04;101060.78;1744874;81;21044;-75
2021/10/17 05:24:31;;;;;;;29.10;19.30;;;;;;;8.81;73.81;101053.80;1733840;81;21161;-75
2021/10/17 05:26:59;;;;;;;32.90;20.55;;;;;;;8.83;73.62;101055.89;1744694;81;20882;-74
2021/10/17 05:29:50;;;;;;;25.77;16.57;;;;;;;8.90;73.64;101068.61;1743930;80;21320;-74
2021/10/17 05:32:19;;;;;;;28.05;18.52;;;;;;;8.97;73.19;101066.55;1744451;82;20912;-75
2021/10/17 05:34:52;;;;;;;26.00;18.62;;;;;;;9.06;72.96;101072.66;1740537;80;20992;-75
2021/10/17 05:37:20;;;;;;;23.87;17.17;;;;;;;9.13;72.77;101074.53;1745049;80;21780;-75
2021/10/17 05:39:48;;;;;;;25.72;18.35;;;;;;;9.20;72.47;101072.02;1744553;82;20893;-75
2021/10/17 05:42:15;;;;;;;24.40;17.90;;;;;;;9.27;72.19;101073.88;1744414;80;20933;-75
2021/10/17 05:44:42;;;;;;;24.77;18.07;;;;;;;9.34;71.98;101075.31;1744748;80;20865;-75
2021/10/17 05:47:12;;;;;;;24.50;16.73;;;;;;;9.41;71.84;101072.78;1744707;82;20854;-74
2021/10/17 05:49:40;;;;;;;24.47;16.55;;;;;;;9.49;71.75;101073.27;1744315;80;21113;-75
2021/10/17 05:52:33;;;;;;;26.52;17.30;;;;;;;9.57;71.56;101073.36;1744180;81;20940;-75
2021/10/17 05:55:00;;;;;;;26.80;19.02;;;;;;;9.66;71.47;101080.29;1744529;82;21512;-76
2021/10/17 05:57:27;;;;;;;23.57;18.75;;;;;;;9.75;71.29;101073.28;1744746;82;21430;-75
2021/10/17 05:59:54;;;;;;;32.63;18.00;;;;;;;9.85;71.07;101075.02;1744652;82;20932;-74
2021/10/17 06:02:21;;;;;;;25.40;17.80;;;;;;;9.96;70.70;101077.10;1744911;82;21269;-75
2021/10/17 06:05:00;;;;;;;21.80;17.05;;;;;;;10.02;70.27;101074.62;1745623;80;21561;-76
2021/10/17 06:07:25;;;;;;;27.25;18.62;;;;;;;10.08;70.08;101076.94;1744154;80;20964;-76
2021/10/17 06:09:53;;;;;;;22.93;16.35;;;;;;;10.14;69.89;101077.47;1744515;81;20972;-76
2021/10/17 06:12:22;;;;;;;23.12;17.23;;;;;;;10.23;69.84;101085.80;1744771;81;20976;-74
2021/10/17 06:14:49;;;;;;;26.57;18.52;;;;;;;10.33;69.43;101081.80;1744709;80;21905;-76
2021/10/17 06:17:16;;;;;;;22.60;17.40;;;;;;;10.43;69.19;101083.03;1744829;81;20920;-76
2021/10/17 06:19:43;;;;;;;22.70;17.42;;;;;;;10.54;68.85;101085.94;1744493;82;20960;-76
2021/10/17 06:22:20;;;;;;;21.52;16.87;;;;;;;10.62;68.50;101091.23;1744772;80;20878;-77
2021/10/17 06:24:48;;;;;;;24.10;17.00;;;;;;;10.70;68.25;101091.69;1744475;82;20940;-78
2021/10/17 06:27:16;;;;;;;26.82;17.77;;;;;;;10.75;67.82;101093.12;1744577;82;22038;-77
2021/10/17 06:29:44;;;;;;;22.87;17.45;;;;;;;10.81;67.52;101089.81;1744271;81;21023;-76
2021/10/17 06:32:11;;;;;;;27.67;17.00;;;;;;;10.87;67.06;101089.02;1744440;80;21347;-76
2021/10/17 06:34:52;;;;;;;26.60;17.25;;;;;;;10.93;66.89;101087.83;1744883;80;21356;-75
2021/10/17 06:37:35;;;;;;;20.05;16.05;;;;;;;11.00;66.79;101083.93;1685029;83;20956;-76
2021/10/17 06:40:05;;;;;;;22.62;16.50;;;;;;;11.08;66.26;101084.84;1638537;85;21094;-75
2021/10/17 06:42:31;;;;;;;19.32;14.63;;;;;;;11.13;66.06;101084.95;1639398;87;21174;-75
2021/10/17 06:45:01;;;;;;;19.52;16.65;;;;;;;11.22;65.79;101088.02;1639257;87;20892;-76
2021/10/17 06:47:30;;;;;;;23.20;16.35;;;;;;;11.29;65.51;101081.48;1639243;87;20955;-75
2021/10/17 06:49:57;;;;;;;26.35;16.75;;;;;;;11.36;65.28;101085.02;1617786;87;21397;-76
2021/10/17 06:52:24;;;;;;;18.87;15.38;;;;;;;11.47;65.24;101080.92;1639732;87;21147;-76
2021/10/17 06:54:51;;;;;;;20.72;16.32;;;;;;;11.56;64.84;101076.02;1639724;86;20971;-77
2021/10/17 06:57:18;;;;;;;22.60;16.20;;;;;;;11.61;64.64;101081.01;1639480;86;21433;-76
2021/10/17 06:59:45;;;;;;;23.25;16.70;;;;;;;11.66;64.42;101082.05;1639314;87;20987;-77
2021/10/17 07:02:14;;;;;;;20.95;16.57;;;;;;;11.69;64.14;101080.55;1639503;87;21054;-77
2021/10/17 07:04:42;;;;;;;23.00;16.95;;;;;;;11.71;64.29;101081.31;1639620;87;21044;-76
2021/10/17 07:07:09;;;;;;;23.85;15.95;;;;;;;11.75;64.40;101085.47;1635938;86;20891;-76
2021/10/17 07:09:40;;;;;;;22.70;15.75;;;;;;;11.82;64.43;101085.01;1635868;86;20891;-76
2021/10/17 07:12:11;;;;;;;23.25;17.02;;;;;;;11.92;64.14;101089.31;1635917;86;21435;-76
2021/10/17 07:14:37;;;;;;;21.82;15.28;;;;;;;11.98;63.95;101086.34;1636208;87;20922;-77
2021/10/17 07:17:22;;;;;;;20.00;15.20;;;;;;;12.06;63.82;101084.56;1636064;86;21176;-76
2021/10/17 07:19:49;;;;;;;22.60;15.70;;;;;;;12.18;63.93;101077.72;1636046;86;20934;-77
2021/10/17 07:22:16;;;;;;;22.85;16.02;;;;;;;12.32;63.57;101076.45;1636305;86;20998;-79
2021/10/17 07:24:45;;;;;;;23.10;14.10;;;;;;;12.41;62.51;101072.42;1635868;86;21037;-77
2021/10/17 07:27:11;;;;;;;20.05;15.58;;;;;;;12.46;62.13;101071.66;1636431;86;21054;-78
2021/10/17 07:29:40;;;;;;;21.25;15.43;;;;;;;12.52;62.16;101073.09;1635801;86;22397;-76
2021/10/17 07:32:07;;;;;;;18.65;15.08;;;;;;;12.60;62.13;101073.45;1638933;84;20958;-77
2021/10/17 07:34:34;;;;;;;22.37;15.20;;;;;;;12.69;61.61;101074.19;1690793;83;21791;-77
2021/10/17 07:37:01;;;;;;;16.60;13.85;;;;;;;12.76;60.88;101073.34;1719538;81;21070;-75
2021/10/17 07:39:31;;;;;;;15.53;13.25;;;;;;;12.79;60.36;101071.86;1742599;82;20924;-77
2021/10/17 07:41:59;;;;;;;18.17;13.18;;;;;;;12.86;59.94;101072.69;1742959;81;21419;-75
2021/10/17 07:44:26;;;;;;;20.60;13.35;;;;;;;13.02;59.62;101075.67;1742575;82;20928;-81
2021/10/17 07:47:05;;;;;;;17.40;12.70;;;;;;;13.27;59.25;101069.69;1742577;82;20905;-79
2021/10/17 07:49:34;;;;;;;16.95;13.00;;;;;;;13.58;58.12;101063.78;1742350;82;21043;-78
2021/10/17 07:52:01;;;;;;;14.70;12.05;;;;;;;13.86;57.24;101063.66;1742677;82;20880;-81
2021/10/17 07:54:28;;;;;;;14.18;11.93;;;;;;;14.12;56.92;101063.70;1742629;82;21128;-82
2021/10/17 07:56:55;;;;;;;18.50;12.60;;;;;;;14.38;56.00;101060.58;1742744;82;20841;-80
2021/10/17 07:59:24;;;;;;;17.73;13.65;;;;;;;14.54;54.66;101058.20;1741959;82;20905;-81
2021/10/17 08:01:50;;;;;;;14.90;12.37;;;;;;;14.69;53.97;101063.28;1742588;82;20885;-81
2021/10/17 08:04:22;;;;;;;14.53;11.90;;;;;;;14.86;53.82;101059.95;1741913;82;20991;-80
2021/10/17 08:06:52;;;;;;;15.53;12.28;;;;;;;15.08;53.37;101060.09;1752508;81;20924;-81
2021/10/17 08:09:19;;;;;;;18.75;11.88;;;;;;;15.36;53.27;101056.76;1757856;81;21476;-82
2021/10/17 08:11:47;;;;;;;13.10;11.68;;;;;;;15.59;52.52;101059.05;1757893;81;20924;-82
2021/10/17 08:14:14;;;;;;;16.32;12.05;;;;;;;15.70;51.67;101053.80;1757776;81;21421;-80
2021/10/17 08:16:43;;;;;;;15.98;10.50;;;;;;;15.70;51.67;101053.80;1757518;81;20912;-81
2021/10/17 08:19:10;;;;;;;12.53;9.88;;;;;;;15.68;50.58;101048.27;1740681;81;21009;-84
2021/10/17 08:21:37;;;;;;;11.53;9.88;;;;;;;15.62;50.12;101052.69;1721485;82;20887;-83
2021/10/17 08:24:06;;;;;;;13.40;8.83;;;;;;;15.53;50.01;101051.08;1721682;83;20978;-80
2021/10/17 08:26:35;;;;;;;14.03;8.43;;;;;;;15.52;49.49;101054.70;1721212;83;21028;-79
2021/10/17 08:29:02;;;;;;;11.05;7.65;;;;;;;15.52;49.49;101054.70;1722036;82;21610;-80
2021/10/17 08:31:31;;;;;;;10.38;7.45;;;;;;;15.51;49.28;101051.67;1721802;83;21161;-80
2021/10/17 08:33:57;;;;;;;9.30;7.50;;;;;;;15.57;49.73;101048.23;1721655;83;20927;-79
2021/10/17 08:36:28;;;;;;;11.15;7.42;;;;;;;15.57;49.73;101048.23;1721260;83;21342;-79
2021/10/17 08:38:55;;;;;;;13.70;7.75;;;;;;;15.56;48.93;101050.00;1721846;83;20939;-78
2021/10/17 08:41:22;;;;;;;9.05;7.97;;;;;;;15.47;48.64;101051.56;1721604;83;21010;-77
2021/10/17 08:43:52;;;;;;;11.05;7.40;;;;;;;15.47;48.64;101051.56;1718983;83;21149;-77
2021/10/17 08:46:20;;;;;;;9.45;7.40;;;;;;;15.44;48.38;101050.93;1720018;83;20912;-78
2021/10/17 08:48:55;;;;;;;10.63;8.20;;;;;;;15.39;48.78;101049.95;1720744;83;20962;-78
2021/10/17 08:51:26;;;;;;;11.63;6.55;;;;;;;15.37;49.07;101050.53;1721809;83;20966;-78
2021/10/17 08:53:56;;;;;;;11.97;6.28;;;;;;;15.41;48.56;101056.45;1718497;83;20991;-81
2021/10/17 08:56:24;;;;;;;11.08;8.43;;;;;;;15.39;48.47;101049.11;1721790;83;21224;-77
2021/10/17 08:58:53;;;;;;;8.35;7.30;;;;;;;15.33;48.16;101054.35;1721962;83;21488;-78
2021/10/17 09:01:22;;;;;;;10.48;7.40;;;;;;;15.33;48.16;101054.35;1720767;83;20990;-78
2021/10/17 09:03:55;;;;;;;9.40;6.53;;;;;;;15.21;48.21;101045.53;1720793;82;20943;-77
2021/10/17 09:06:27;;;;;;;7.67;6.63;;;;;;;15.16;47.75;101048.13;1719335;82;21529;-77
2021/10/17 09:09:15;;;;;;;10.53;7.87;;;;;;;15.16;47.75;101048.13;1752166;80;21611;-78
2021/10/17 09:11:52;;;;;;;8.68;7.22;;;;;;;15.07;48.53;101045.22;1752492;80;21406;-79
2021/10/17 09:14:22;;;;;;;10.35;7.83;;;;;;;15.07;48.53;101045.22;1752502;82;20925;-79
2021/10/17 09:16:53;;;;;;;15.45;9.23;;;;;;;15.09;49.05;101038.48;1752383;82;20874;-77
2021/10/17 09:19:32;;;;;;;12.53;9.30;;;;;;;15.14;49.67;101040.33;1716499;83;21478;-80
2021/10/17 09:22:10;;;;;;;17.15;10.18;;;;;;;15.17;49.71;101037.45;1716423;83;21696;-80
2021/10/17 09:24:44;;;;;;;13.28;9.83;;;;;;;15.20;50.26;101035.06;1752448;81;20936;-78
2021/10/17 09:27:22;;;;;;;15.08;9.65;;;;;;;15.20;50.26;101035.06;1750886;81;21430;-77
2021/10/17 09:29:54;;;;;;;16.87;10.28;;;;;;;15.22;50.09;101036.63;1752379;82;20940;-78
2021/10/17 09:32:25;;;;;;;15.05;11.00;;;;;;;15.23;50.37;101029.55;1752540;82;21323;-77
2021/10/17 09:34:59;;;;;;;14.78;11.15;;;;;;;15.22;49.92;101030.03;1752510;82;21208;-77
2021/10/17 09:37:40;;;;;;;18.32;11.10;;;;;;;15.18;50.37;101028.56;1751910;81;20963;-76
2021/10/17 09:40:26;;;;;;;14.95;11.38;;;;;;;15.14;50.42;101024.48;1752434;80;20952;-77
2021/10/17 09:43:33;;;;;;;13.05;11.12;;;;;;;15.09;50.96;101031.88;1752498;82;21468;-78
2021/10/17 09:46:14;;;;;;;17.23;11.73;;;;;;;15.09;50.96;101031.88;1751481;81;21497;-79
2021/10/17 09:48:42;;;;;;;14.98;10.55;;;;;;;15.04;50.47;101030.05;1752537;82;21144;-78
2021/10/17 09:51:14;;;;;;;14.35;11.25;;;;;;;15.01;50.52;101032.92;1752831;82;20921;-78
2021/10/17 09:53:49;;;;;;;12.60;10.28;;;;;;;14.99;50.12;101032.20;1752562;81;20838;-79
2021/10/17 09:56:25;;;;;;;14.50;11.10;;;;;;;14.90;50.02;101037.66;1752623;82;21472;-79
2021/10/17 09:58:54;;;;;;;14.78;10.95;;;;;;;14.86;50.36;101034.86;1733652;82;20896;-79
2021/10/17 10:01:22;;;;;;;14.90;10.45;;;;;;;14.85;50.27;101026.55;1752826;81;21531;-80
2021/10/17 10:03:51;;;;;;;14.35;10.08;;;;;;;14.85;50.27;101026.55;1752372;80;21509;-79
2021/10/17 10:06:21;;;;;;;13.20;10.55;;;;;;;14.91;50.51;101030.92;1754132;81;21438;-80
2021/10/17 10:08:48;;;;;;;12.33;10.80;;;;;;;14.93;49.93;101032.14;1757879;81;20888;-77
2021/10/17 10:11:22;;;;;;;18.02;10.98;;;;;;;15.01;50.20;101025.84;1757872;81;20861;-77
2021/10/17 10:13:55;;;;;;;16.37;10.88;;;;;;;15.08;50.24;101021.80;1757899;81;21134;-76
2021/10/17 10:16:26;;;;;;;14.10;11.40;;;;;;;15.13;50.12;101027.58;1757844;81;21006;-76
2021/10/17 10:19:00;;;;;;;15.35;11.43;;;;;;;15.22;50.00;101024.74;1758066;80;21088;-78
2021/10/17 10:21:29;;;;;;;15.65;11.30;;;;;;;15.30;49.35;101020.23;1757587;81;22112;-79
2021/10/17 10:23:59;;;;;;;15.05;11.25;;;;;;;15.38;49.09;101020.49;1757866;81;20908;-78
2021/10/17 10:26:28;;;;;;;16.42;10.35;;;;;;;15.47;49.25;101020.30;1757768;81;21094;-77
2021/10/17 10:28:56;;;;;;;16.27;10.28;;;;;;;15.57;49.23;101017.34;1758215;81;20932;-78
2021/10/17 10:31:53;;;;;;;16.07;10.28;;;;;;;15.71;48.85;101015.84;1757769;81;20972;-78
2021/10/17 10:34:38;;;;;;;12.20;9.48;;;;;;;15.85;47.99;101012.64;1757290;81;20897;-77
2021/10/17 10:37:26;;;;;;;18.10;9.98;;;;;;;15.94;47.49;101013.25;1758006;80;21618;-78
2021/10/17 10:40:09;;;;;;;15.58;10.13;;;;;;;16.02;47.34;101004.75;1757965;81;22150;-77
2021/10/17 10:42:48;;;;;;;17.25;10.03;;;;;;;16.08;46.81;101004.28;1758045;81;20980;-78
2021/10/17 10:45:33;;;;;;;10.70;9.60;;;;;;;16.10;46.72;100994.43;1757711;81;21505;-78
2021/10/17 10:48:15;;;;;;;15.03;9.78;;;;;;;16.19;46.23;100999.48;1757767;81;20963;-78
2021/10/17 10:50:52;;;;;;;15.75;9.75;;;;;;;16.31;46.44;100998.52;1757982;81;21386;-78
2021/10/17 10:53:47;;;;;;;16.27;9.13;;;;;;;16.54;46.02;100994.05;1759256;80;21096;-78
2021/10/17 10:56:41;;;;;;;10.85;8.73;;;;;;;16.54;46.02;100994.05;1761159;81;20927;-79
2021/10/17 10:59:08;;;;;;;14.38;8.40;;;;;;;16.58;45.44;101001.66;1761818;81;20876;-78
2021/10/17 11:02:02;;;;;;;10.78;8.10;;;;;;;16.59;45.15;100995.88;1761342;80;20869;-78
2021/10/17 11:04:44;;;;;;;10.88;7.83;;;;;;;16.61;45.14;100995.27;1761177;78;20920;-78
2021/10/17 11:07:33;;;;;;;11.30;7.70;;;;;;;16.64;45.09;100995.02;1718264;80;21478;-77
2021/10/17 11:10:27;;;;;;;11.18;7.50;;;;;;;16.64;44.64;100993.69;1703750;80;20927;-79
2021/10/17 11:12:56;;;;;;;9.43;8.25;;;;;;;16.62;44.66;100990.81;1714772;83;21524;-79
2021/10/17 11:15:26;;;;;;;11.38;7.95;;;;;;;16.63;44.62;100985.86;1719638;83;20944;-80
2021/10/17 11:18:00;;;;;;;13.60;8.88;;;;;;;16.56;44.73;100986.83;1719807;83;20947;-79
2021/10/17 11:20:30;;;;;;;10.40;8.17;;;;;;;16.52;44.96;100984.09;1718920;82;21136;-76
2021/10/17 11:22:57;;;;;;;13.83;8.55;;;;;;;16.50;44.95;100986.85;1755539;82;20877;-77
2021/10/17 11:25:25;;;;;;;10.58;8.58;;;;;;;16.42;45.11;100985.77;1754113;82;20963;-77
2021/10/17 11:27:53;;;;;;;14.13;9.58;;;;;;;16.37;45.14;100990.11;1752997;82;21011;-76
2021/10/17 11:30:34;;;;;;;12.25;8.78;;;;;;;16.27;45.04;100986.48;1752804;82;20897;-76